Statistiken

Seite 110 von 241 |< · · [107] [108] [109] [110] [111] [112] [113] · · >|

Die Witze mit der höchsten Punktzahl

Nr. Witz Pkte. Bew. Aufr. Mails Kom. Datum
5451 Deine Mutter ist so fett, sie arbeitet auf ... 0.2683 82 3275 0 0 12.04.08 15:04
5452 Deine Mutter ist so dumm, sie ist in einem ... 0.2683 82 1873 0 0 12.04.08 14:38
5453 Mein Leben ist wie eine Baustelle - es dreht ... 0.2683 41 2085 1 0 07.07.05 12:00
5454 Alle Kinder fahren nach Köln, nur nicht Heinz, ... 0.2683 41 1913 0 0 07.07.05 12:00
5455 Das NICHTS ist die totale Abwesenheit von ... 0.2683 41 1749 1 0 07.07.05 12:00
5456 Steht der Gärtner im Gemüse, hat er später grüne Füße. ... 0.2683 41 1744 0 0 07.07.05 12:00
5457 Alle sind wieder krank, auch hier bei uns: ... 0.2683 41 1727 1 0 07.07.05 12:00
5458 Alle Kinder haben noch Taschengeld, nur nicht ... 0.2683 41 1685 0 0 07.07.05 12:00
5459 Jetzt gibt es ein Schwulenmagazin auf RTL. ... 0.2683 41 1666 1 1 07.07.05 12:00
5460 Alle Kinder verließen das E-Werk, nur nicht ... 0.2683 41 1622 0 0 07.07.05 12:00
5461 Lieber eine lange Leitung, als einen Kurzen in der Hose. ... 0.2683 41 1485 0 0 07.07.05 12:00
5462 PONTIAC: Polizeiautos ohne neuen TÜV initiieren Autocrashs ... 0.2683 41 1474 0 0 07.07.05 12:00
5463 Gäste werden auf dem Klo nicht alt, lässt ... 0.2683 41 1427 0 0 07.07.05 12:00
5464 Wenn du hier hochguckst, pinkelst du dir auf den Schuh. ... 0.2683 41 1406 0 0 07.07.05 12:00
5465 Im Falle des Durchfalls ist Tempo wirklich alles. ... 0.2683 41 1285 0 0 07.07.05 12:00
5466 "Baden ist hier verboten!", erklärt der Polizist ... 0.2682 1484 25246 62 17 07.07.05 12:00
5467 Fotze lecken das ist fein, doch es muss im ... 0.2682 343 16028 18 2 07.07.05 12:00
5468 Die drei Etappen des Erwachsenwerdens eines ... 0.2676 426 11301 28 25 07.07.05 12:00
5469 Wie lautet die enharmonische Verwechslung ... 0.2676 71 2767 2 2 07.07.05 12:00
5470 Warum ist in der Badewanne einer Blondine ... 0.2676 71 1976 2 0 07.07.05 12:00
5471 Das Wettrudern. Vor einiger Zeit verabredete ... 0.2675 157 3833 9 4 08.07.05 00:40
5472 Ein Waldorfschüler läuft Amok. Es sterben drei Bäume! ... 0.2674 86 2119 2 0 29.12.08 11:21
5473 Was war dein schönstes Erlebnis im Skiurlaub?" ... 0.2674 86 1794 1 0 07.07.05 12:00
5474 "Hast du was gegen Ausländer?" - "Wie, gibt ... 0.2673 101 3650 1 0 07.07.05 12:00
5475 "Papa, die Raketen die du mir zu Silvester ... 0.2672 408 14727 43 18 27.01.09 09:03
5476 Zwei Buben spielen mit zwei Hunden und versuchen, ... 0.2672 116 3061 6 0 13.07.06 00:38
5477 Was sagt eine Blondine, wenn ein Vogel seine ... 0.2672 116 2159 5 0 07.07.05 12:00
5478 "Hey, toller Benz, Mensch, wie hast du denn ... 0.2667 135 2506 3 2 07.07.05 12:00
5479 Ein Mantafahrer fährt rückwärts einen Berg ... 0.2667 105 3217 4 2 07.07.05 12:00
5480 Im französischen Feinschmeckerrestaurant: ... 0.2667 60 1816 1 0 07.07.05 12:00
5481 Er war Sportlehrer, aber sie kam schneller. ... 0.2667 60 1815 2 0 07.07.05 12:00
5482 Wie kann Mercedes die A-Klasse überhaupt ... 0.2667 60 1655 1 0 07.07.05 12:00
5483 Alle Kinder essen Snickers, nur nicht Lars, der isst Mars. ... 0.2667 45 2644 3 0 07.07.05 12:00
5484 Lieber arm dran, als Arm ab. ... 0.2667 45 2083 0 0 07.07.05 12:00
5485 Warum sind Manta-Fahrer seit August 1990 ... 0.2667 45 1872 0 0 07.07.05 12:00
5486 Wer schon die Übersicht verloren hat, sollte ... 0.2667 45 1867 0 1 07.07.05 12:00
5487 Für das große Chaos haben wir Computer. Die ... 0.2667 45 1860 0 0 07.07.05 12:00
5488 Alle Kinder bekommen ein Knöllchen, nur nicht ... 0.2667 45 1837 0 0 07.07.05 12:00
5489 Letze Worte des Computer-Freaks: "Hätte ich ... 0.2667 45 1793 0 0 07.07.05 12:00
5490 Woran erkennt man einen Mantafahrer in der ... 0.2667 45 1643 0 0 07.07.05 12:00
5491 Auf dem Mars gibt es Wasser und sehr viele ... 0.2667 45 1635 0 0 07.07.05 12:00
5492 Letze Worte von Tarzan: "Welcher Idiot hat ... 0.2667 45 1568 0 0 07.07.05 12:00
5493 Warum fahren Mantafahrer keinen Scirocco? ... 0.2667 45 1525 0 0 07.07.05 12:00
5494 Alle Kinder bremsten vor dem Bahndamm, nur ... 0.2667 45 1512 0 0 07.07.05 12:00
5495 FIAT: Flick ihn alle Tage ... 0.2667 45 1397 0 0 07.07.05 12:00
5496 WEGA: Wieder ein Gerät ausgefallen ... 0.2667 45 1286 0 0 07.07.05 12:00
5497 In Winkeln ist gut pinkeln ... 0.2667 45 1280 0 0 07.07.05 12:00
5498 AOK: Alle oder keiner ... 0.2667 45 1262 0 0 07.07.05 12:00
5499 Letze Worte der Prostituierten: "Ist der aber niedlich." ... 0.2667 45 1247 0 0 07.07.05 12:00
5500 Nudeltunker ... 0.2667 30 1427 0 0 07.07.05 12:00

[Favoriten] [Punkte] [Bewertungen] [Aufrufe] [Mails] [Kommentare] [Datum]

Seite 110 von 241 |< · < · [1] [2] [3] [4] [5] [6] [7] [8] [9] [10] [11] [12] [13] [14] [15] [16] [17] [18] [19] [20] [21] [22] [23] [24] [25] [26] [27] [28] [29] [30] [31] [32] [33] [34] [35] [36] [37] [38] [39] [40] [41] [42] [43] [44] [45] [46] [47] [48] [49] [50] [51] [52] [53] [54] [55] [56] [57] [58] [59] [60] [61] [62] [63] [64] [65] [66] [67] [68] [69] [70] [71] [72] [73] [74] [75] [76] [77] [78] [79] [80] [81] [82] [83] [84] [85] [86] [87] [88] [89] [90] [91] [92] [93] [94] [95] [96] [97] [98] [99] [100] [101] [102] [103] [104] [105] [106] [107] [108] [109] [110] [111] [112] [113] [114] [115] [116] [117] [118] [119] [120] [121] [122] [123] [124] [125] [126] [127] [128] [129] [130] [131] [132] [133] [134] [135] [136] [137] [138] [139] [140] [141] [142] [143] [144] [145] [146] [147] [148] [149] [150] [151] [152] [153] [154] [155] [156] [157] [158] [159] [160] [161] [162] [163] [164] [165] [166] [167] [168] [169] [170] [171] [172] [173] [174] [175] [176] [177] [178] [179] [180] [181] [182] [183] [184] [185] [186] [187] [188] [189] [190] [191] [192] [193] [194] [195] [196] [197] [198] [199] [200] [201] [202] [203] [204] [205] [206] [207] [208] [209] [210] [211] [212] [213] [214] [215] [216] [217] [218] [219] [220] [221] [222] [223] [224] [225] [226] [227] [228] [229] [230] [231] [232] [233] [234] [235] [236] [237] [238] [239] [240] [241] · > · >|

Zuletzt gesucht

Buchtipps

Englisch lernen mit Witzen.
Angelika Feilhauer
Englisch lernen mit Witzen.
EUR 4,95
X-tra starke Kinderwitze.
Nikolaus Lenz
X-tra starke Kinderwitze.
EUR 5,95
"In Mathe war ich immer schlec
Albrecht Beutelspacher
"In Mathe war ich immer schlecht...". Be
EUR 14,00